createdAt,value
2022-08-28T00:01:53.766Z,19.39
2022-08-28T00:04:57.020Z,19.32
2022-08-28T00:08:00.949Z,19.33
2022-08-28T00:11:05.213Z,19.26
2022-08-28T00:14:11.319Z,19.23
2022-08-28T00:17:14.660Z,19.19
2022-08-28T00:20:19.911Z,19.10
2022-08-28T00:23:24.113Z,19.01
2022-08-28T00:26:46.893Z,18.97
2022-08-28T00:29:51.013Z,18.96
2022-08-28T00:32:56.676Z,18.96
2022-08-28T00:36:00.918Z,18.99
2022-08-28T00:39:05.072Z,19.01
2022-08-28T00:42:10.202Z,19.04
2022-08-28T00:45:15.349Z,19.00
2022-08-28T00:48:18.125Z,18.99
2022-08-28T00:51:39.834Z,19.01
2022-08-28T00:54:59.187Z,18.98
2022-08-28T00:58:03.365Z,18.95
2022-08-28T01:01:07.950Z,18.93
2022-08-28T01:04:16.483Z,18.91
2022-08-28T01:07:19.708Z,18.85
2022-08-28T01:10:26.300Z,18.88
2022-08-28T01:13:30.225Z,18.89
2022-08-28T01:16:34.755Z,18.88
2022-08-28T01:19:40.373Z,18.89
2022-08-28T01:22:51.856Z,18.87
2022-08-28T01:25:56.155Z,18.81
2022-08-28T01:29:00.863Z,18.72
2022-08-28T01:32:05.203Z,18.66
2022-08-28T01:35:19.131Z,18.62
2022-08-28T01:38:26.756Z,18.58
2022-08-28T01:41:31.277Z,18.55
2022-08-28T01:44:34.310Z,18.55
2022-08-28T01:47:37.007Z,18.54
2022-08-28T01:50:41.087Z,18.54
2022-08-28T01:53:45.345Z,18.48
2022-08-28T01:56:51.012Z,18.47
2022-08-28T01:59:54.820Z,18.47
2022-08-28T02:03:00.869Z,18.50
2022-08-28T02:06:03.941Z,18.55
2022-08-28T02:09:07.337Z,18.58
2022-08-28T02:12:18.695Z,18.57
2022-08-28T02:15:23.540Z,18.63
2022-08-28T02:18:26.356Z,18.35
2022-08-28T02:21:29.550Z,18.67
2022-08-28T02:24:32.243Z,18.71
2022-08-28T02:27:36.870Z,18.78
2022-08-28T02:30:40.119Z,18.82
2022-08-28T02:33:45.007Z,18.88
2022-08-28T02:36:48.108Z,18.92
2022-08-28T02:39:51.577Z,18.94
2022-08-28T02:42:55.697Z,18.97
2022-08-28T02:45:58.824Z,18.97
2022-08-28T02:49:01.633Z,18.98
2022-08-28T02:52:07.087Z,18.98
2022-08-28T02:55:12.450Z,18.97
2022-08-28T02:58:16.494Z,18.98
2022-08-28T03:01:19.612Z,18.99
2022-08-28T03:04:22.718Z,19.00
2022-08-28T03:07:25.386Z,18.99
2022-08-28T03:10:28.427Z,18.96
2022-08-28T03:13:32.586Z,18.95
2022-08-28T03:16:35.569Z,18.93
2022-08-28T03:19:38.678Z,18.92
2022-08-28T03:22:59.718Z,18.90
2022-08-28T03:26:06.211Z,18.89
2022-08-28T03:29:10.573Z,18.88
2022-08-28T03:32:13.552Z,18.88
2022-08-28T03:35:16.635Z,18.85
2022-08-28T03:38:20.362Z,18.83
2022-08-28T03:41:25.402Z,18.83
2022-08-28T03:44:29.442Z,18.84
2022-08-28T03:47:32.475Z,18.83
2022-08-28T03:50:36.511Z,18.67
2022-08-28T03:53:39.867Z,18.82
2022-08-28T03:56:43.433Z,18.80
2022-08-28T03:59:48.025Z,18.79
2022-08-28T04:02:51.309Z,18.77
2022-08-28T04:05:54.303Z,18.76
2022-08-28T04:09:00.329Z,18.74
2022-08-28T04:12:03.938Z,18.72
2022-08-28T04:15:09.779Z,18.71
2022-08-28T04:18:13.725Z,18.66
2022-08-28T04:21:19.238Z,18.68
2022-08-28T04:24:22.342Z,18.68
2022-08-28T04:27:25.050Z,18.67
2022-08-28T04:30:29.140Z,18.66
2022-08-28T04:33:33.132Z,18.61
2022-08-28T04:36:36.870Z,18.67
2022-08-28T04:39:39.580Z,18.71
2022-08-28T04:42:43.071Z,18.71
2022-08-28T04:45:47.287Z,18.73
2022-08-28T04:48:50.095Z,18.67
2022-08-28T04:51:52.874Z,18.72
2022-08-28T04:54:55.814Z,18.74
2022-08-28T04:57:58.791Z,18.74
2022-08-28T05:01:07.086Z,18.72
2022-08-28T05:04:11.339Z,18.75
2022-08-28T05:07:14.022Z,18.79
2022-08-28T05:10:16.907Z,18.82
2022-08-28T05:13:20.771Z,18.83
2022-08-28T05:16:24.956Z,18.86
2022-08-28T05:19:29.265Z,18.87
2022-08-28T05:22:32.536Z,18.89
2022-08-28T05:25:37.579Z,18.91
2022-08-28T05:28:40.979Z,18.93
2022-08-28T05:31:46.342Z,18.96
2022-08-28T05:34:49.351Z,18.98
2022-08-28T05:37:53.465Z,19.02
2022-08-28T05:40:56.208Z,19.06
2022-08-28T05:44:00.172Z,19.11
2022-08-28T05:47:04.718Z,19.13
2022-08-28T05:50:08.937Z,19.15
2022-08-28T05:53:11.635Z,19.14
2022-08-28T05:56:16.960Z,19.19
2022-08-28T05:59:19.889Z,19.24
2022-08-28T06:02:24.049Z,19.28
2022-08-28T06:05:27.123Z,19.32
2022-08-28T06:08:31.359Z,19.37
2022-08-28T06:11:34.748Z,19.47
2022-08-28T06:14:37.723Z,19.55
2022-08-28T06:17:41.947Z,19.60
2022-08-28T06:20:46.731Z,19.62
2022-08-28T06:23:49.871Z,19.69
2022-08-28T06:26:53.030Z,19.75
2022-08-28T06:29:59.899Z,19.80
2022-08-28T06:33:04.631Z,19.85
2022-08-28T06:36:08.262Z,19.92
2022-08-28T06:39:13.677Z,20.06
2022-08-28T06:42:16.418Z,20.17
2022-08-28T06:45:20.249Z,20.27
2022-08-28T06:48:27.448Z,20.33
2022-08-28T06:51:30.239Z,20.39
2022-08-28T06:54:33.000Z,20.46
2022-08-28T06:57:36.353Z,20.53
2022-08-28T07:00:40.380Z,20.63
2022-08-28T07:03:45.800Z,20.71
2022-08-28T07:06:54.196Z,20.79
2022-08-28T07:09:57.863Z,20.90
2022-08-28T07:13:00.873Z,20.96
2022-08-28T07:16:04.118Z,21.02
2022-08-28T07:19:11.200Z,21.08
2022-08-28T07:22:14.179Z,21.10
2022-08-28T07:25:17.660Z,21.14
2022-08-28T07:28:22.021Z,21.29
2022-08-28T07:31:27.983Z,21.48
2022-08-28T07:34:32.343Z,21.67
2022-08-28T07:37:35.090Z,21.92
2022-08-28T07:40:38.021Z,22.15
2022-08-28T07:43:58.270Z,22.33
2022-08-28T07:47:03.989Z,22.56
2022-08-28T07:50:08.760Z,22.66
2022-08-28T07:53:11.480Z,22.70
2022-08-28T07:56:14.455Z,22.70
2022-08-28T07:59:19.326Z,22.55
2022-08-28T08:02:22.299Z,22.99
2022-08-28T08:05:26.457Z,23.12
2022-08-28T08:08:29.883Z,23.12
2022-08-28T08:11:33.559Z,23.13
2022-08-28T08:14:36.807Z,23.12
2022-08-28T08:17:40.167Z,23.20
2022-08-28T08:20:44.217Z,23.24
2022-08-28T08:23:48.236Z,23.13
2022-08-28T08:27:00.311Z,22.99
2022-08-28T08:30:03.636Z,22.86
2022-08-28T08:33:06.537Z,22.88
2022-08-28T08:36:12.371Z,22.95
2022-08-28T08:39:36.985Z,23.07
2022-08-28T08:42:40.180Z,23.15
2022-08-28T08:45:46.062Z,23.20
2022-08-28T08:48:49.042Z,23.33
2022-08-28T08:52:00.407Z,23.61
2022-08-28T08:55:17.577Z,23.94
2022-08-28T08:58:26.695Z,24.34
2022-08-28T09:01:33.980Z,24.59
2022-08-28T09:04:46.412Z,24.81
2022-08-28T09:07:56.878Z,24.93
2022-08-28T09:11:08.087Z,25.02
2022-08-28T09:14:20.628Z,25.29
2022-08-28T09:17:34.493Z,25.50
2022-08-28T09:20:37.361Z,25.61
2022-08-28T09:23:41.560Z,25.63
2022-08-28T09:26:53.003Z,25.55
2022-08-28T09:29:59.356Z,25.52
2022-08-28T09:33:10.374Z,25.34
2022-08-28T09:36:30.182Z,25.12
2022-08-28T09:39:35.817Z,25.12
2022-08-28T09:42:56.229Z,25.05
2022-08-28T09:46:02.726Z,24.88
2022-08-28T09:49:12.017Z,24.67
2022-08-28T09:52:25.105Z,24.59
2022-08-28T09:55:36.209Z,24.50
2022-08-28T09:58:43.311Z,24.29
2022-08-28T10:01:58.974Z,24.32
2022-08-28T10:05:05.460Z,24.26
2022-08-28T10:08:23.382Z,24.50
2022-08-28T10:11:34.115Z,24.59
2022-08-28T10:14:47.700Z,24.58
2022-08-28T10:18:08.459Z,24.81
2022-08-28T10:21:18.113Z,24.77
2022-08-28T10:24:42.034Z,25.03
2022-08-28T10:28:00.520Z,25.19
2022-08-28T10:31:10.790Z,25.36
2022-08-28T10:34:31.095Z,25.43
2022-08-28T10:37:46.469Z,25.56
2022-08-28T10:40:56.750Z,25.68
2022-08-28T10:44:03.523Z,25.84
2022-08-28T10:47:10.061Z,25.95
2022-08-28T10:50:19.039Z,25.79
2022-08-28T10:53:27.938Z,25.80
2022-08-28T10:56:39.585Z,25.68
2022-08-28T10:59:49.149Z,25.93
2022-08-28T11:02:55.637Z,26.03
2022-08-28T11:06:06.163Z,25.88
2022-08-28T11:09:27.964Z,25.83
2022-08-28T11:12:39.031Z,25.59
2022-08-28T11:15:50.342Z,25.73
2022-08-28T11:19:17.359Z,25.87
2022-08-28T11:22:24.792Z,26.10
2022-08-28T11:25:34.049Z,26.29
2022-08-28T11:28:47.721Z,26.68
2022-08-28T11:32:36.485Z,27.04
2022-08-28T11:35:50.424Z,27.15
2022-08-28T11:39:20.979Z,27.40
2022-08-28T11:42:38.752Z,27.30
2022-08-28T11:46:12.984Z,27.16
2022-08-28T11:49:42.340Z,27.03
2022-08-28T11:53:07.351Z,27.25
2022-08-28T11:56:40.397Z,27.46
2022-08-28T12:00:07.206Z,27.31
2022-08-28T12:03:13.832Z,27.21
2022-08-28T12:06:59.177Z,27.28
2022-08-28T12:10:05.293Z,26.96
2022-08-28T12:13:10.062Z,26.79
2022-08-28T12:16:15.908Z,26.84
2022-08-28T12:19:28.791Z,27.00
2022-08-28T12:22:46.252Z,26.71
2022-08-28T12:25:59.706Z,26.75
2022-08-28T12:29:04.431Z,26.21
2022-08-28T12:32:30.217Z,26.10
2022-08-28T12:35:33.070Z,26.03
2022-08-28T12:38:36.309Z,26.20
2022-08-28T12:41:40.520Z,26.47
2022-08-28T12:44:43.485Z,26.70
2022-08-28T12:47:49.715Z,26.94
2022-08-28T12:51:03.220Z,27.24
2022-08-28T12:54:08.292Z,27.34
2022-08-28T12:57:20.642Z,27.42
2022-08-28T13:00:26.370Z,27.63
2022-08-28T13:03:29.645Z,27.63
2022-08-28T13:06:34.922Z,27.56
2022-08-28T13:09:38.249Z,27.51
2022-08-28T13:12:56.273Z,27.65
2022-08-28T13:16:02.526Z,27.80
2022-08-28T13:19:22.496Z,28.05
2022-08-28T13:22:39.663Z,27.83
2022-08-28T13:25:42.442Z,27.58
2022-08-28T13:28:46.542Z,27.40
2022-08-28T13:31:59.706Z,27.43
2022-08-28T13:35:29.254Z,27.56
2022-08-28T13:38:35.513Z,27.60
2022-08-28T13:41:38.692Z,27.70
2022-08-28T13:44:50.763Z,27.80
2022-08-28T13:47:53.725Z,27.67
2022-08-28T13:51:00.594Z,27.71
2022-08-28T13:54:05.866Z,27.79
2022-08-28T13:57:13.392Z,27.70
2022-08-28T14:00:18.486Z,27.91
2022-08-28T14:03:38.226Z,27.99
2022-08-28T14:06:44.330Z,28.01
2022-08-28T14:09:47.108Z,28.14
2022-08-28T14:12:50.036Z,28.06
2022-08-28T14:15:54.340Z,27.97
2022-08-28T14:18:57.243Z,27.81
2022-08-28T14:22:00.996Z,27.92
2022-08-28T14:25:05.526Z,27.87
2022-08-28T14:28:08.249Z,27.65
2022-08-28T14:31:14.591Z,27.47
2022-08-28T14:34:20.413Z,27.27
2022-08-28T14:37:23.574Z,27.38
2022-08-28T14:40:26.337Z,27.35
2022-08-28T14:43:29.605Z,27.30
2022-08-28T14:46:35.611Z,27.28
2022-08-28T14:49:39.391Z,27.17
2022-08-28T14:52:42.176Z,27.22
2022-08-28T14:55:47.111Z,27.29
2022-08-28T14:58:49.901Z,27.22
2022-08-28T15:01:58.167Z,27.40
2022-08-28T15:05:01.157Z,27.27
2022-08-28T15:08:07.461Z,27.28
2022-08-28T15:11:17.882Z,27.34
2022-08-28T15:14:22.081Z,27.17
2022-08-28T15:17:33.426Z,27.34
2022-08-28T15:20:39.527Z,27.20
2022-08-28T15:23:43.060Z,27.23
2022-08-28T15:26:46.883Z,27.12
2022-08-28T15:29:51.448Z,27.16
2022-08-28T15:34:01.404Z,27.22
2022-08-28T15:37:14.253Z,27.09
2022-08-28T15:40:35.827Z,27.07
2022-08-28T15:43:38.905Z,27.09
2022-08-28T15:47:12.546Z,27.01
2022-08-28T15:50:19.998Z,26.72
2022-08-28T15:53:36.562Z,26.96
2022-08-28T15:56:53.832Z,26.32
2022-08-28T15:59:56.954Z,26.74
2022-08-28T16:03:01.029Z,26.79
2022-08-28T16:06:07.563Z,26.53
2022-08-28T16:09:14.350Z,26.62
2022-08-28T16:12:23.115Z,26.42
2022-08-28T16:15:26.374Z,26.18
2022-08-28T16:18:29.163Z,26.48
2022-08-28T16:21:32.024Z,26.29
2022-08-28T16:24:39.083Z,26.24
2022-08-28T16:27:41.836Z,26.19
2022-08-28T16:30:44.593Z,26.17
2022-08-28T16:34:00.127Z,25.98
2022-08-28T16:37:03.045Z,25.96
2022-08-28T16:40:08.978Z,25.97
2022-08-28T16:43:12.609Z,25.92
2022-08-28T16:46:17.759Z,25.91
2022-08-28T16:49:21.053Z,25.88
2022-08-28T16:52:23.915Z,25.78
2022-08-28T16:55:29.187Z,25.71
2022-08-28T16:58:32.234Z,25.58
2022-08-28T17:01:35.148Z,25.36
2022-08-28T17:04:38.327Z,25.46
2022-08-28T17:07:41.070Z,25.24
2022-08-28T17:10:45.147Z,25.19
2022-08-28T17:13:48.592Z,24.96
2022-08-28T17:16:52.352Z,24.97
2022-08-28T17:19:55.554Z,24.84
2022-08-28T17:22:57.317Z,24.55
2022-08-28T17:26:01.773Z,24.60
2022-08-28T17:29:05.948Z,24.47
2022-08-28T17:32:09.052Z,24.29
2022-08-28T17:35:12.471Z,24.19
2022-08-28T17:38:15.673Z,24.04
2022-08-28T17:41:19.942Z,23.73
2022-08-28T17:44:23.306Z,23.76
2022-08-28T17:47:30.689Z,23.55
2022-08-28T17:50:35.785Z,23.44
2022-08-28T17:53:38.552Z,23.32
2022-08-28T17:56:43.760Z,22.85
2022-08-28T17:59:46.638Z,23.14
2022-08-28T18:02:51.774Z,22.96
2022-08-28T18:05:54.722Z,22.88
2022-08-28T18:08:57.416Z,22.76
2022-08-28T18:12:02.056Z,22.59
2022-08-28T18:15:05.960Z,22.48
2022-08-28T18:18:09.135Z,22.36
2022-08-28T18:21:12.164Z,22.26
2022-08-28T18:24:15.299Z,22.16
2022-08-28T18:27:20.280Z,22.01
2022-08-28T18:30:23.046Z,21.97
2022-08-28T18:33:26.298Z,21.69
2022-08-28T18:36:29.439Z,21.80
2022-08-28T18:39:32.226Z,21.60
2022-08-28T18:42:38.638Z,21.68
2022-08-28T18:45:41.901Z,21.54
2022-08-28T18:48:45.195Z,21.51
2022-08-28T18:51:48.159Z,21.46
2022-08-28T18:54:53.631Z,21.35
2022-08-28T18:58:03.493Z,21.27
2022-08-28T19:01:09.770Z,21.18
2022-08-28T19:04:12.628Z,21.13
2022-08-28T19:10:32.469Z,20.98
2022-08-28T19:13:38.723Z,20.90
2022-08-28T19:16:41.559Z,20.85
2022-08-28T19:19:44.293Z,20.80
2022-08-28T19:22:50.726Z,20.64
2022-08-28T19:25:53.733Z,20.65
2022-08-28T19:28:59.148Z,20.57
2022-08-28T19:32:02.255Z,20.52
2022-08-28T19:35:05.719Z,20.45
2022-08-28T19:38:08.439Z,20.22
2022-08-28T19:41:13.171Z,20.28
2022-08-28T19:44:17.293Z,20.29
2022-08-28T19:47:22.253Z,20.11
2022-08-28T19:50:24.995Z,20.11
2022-08-28T19:53:27.747Z,20.11
2022-08-28T19:56:32.440Z,20.06
2022-08-28T19:59:36.568Z,19.99
2022-08-28T20:02:40.308Z,19.77
2022-08-28T20:05:44.239Z,19.87
2022-08-28T20:08:46.979Z,19.61
2022-08-28T20:11:52.614Z,19.81
2022-08-28T20:15:00.117Z,19.80
2022-08-28T20:18:08.082Z,19.76
2022-08-28T20:21:11.892Z,19.76
2022-08-28T20:24:17.644Z,19.76
2022-08-28T20:27:21.147Z,19.76
2022-08-28T20:30:25.256Z,19.73
2022-08-28T20:33:28.108Z,19.68
2022-08-28T20:36:31.549Z,19.58
2022-08-28T20:39:34.348Z,19.56
2022-08-28T20:42:37.277Z,19.38
2022-08-28T20:45:41.665Z,19.46
2022-08-28T20:48:45.099Z,19.32
2022-08-28T20:52:01.168Z,19.36
2022-08-28T20:55:05.047Z,19.26
2022-08-28T20:58:07.911Z,19.09
2022-08-28T21:01:14.160Z,19.06
2022-08-28T21:04:17.513Z,18.99
2022-08-28T21:07:22.282Z,18.92
2022-08-28T21:10:25.304Z,18.72
2022-08-28T21:13:28.114Z,18.60
2022-08-28T21:16:32.278Z,18.67
2022-08-28T21:19:40.178Z,18.51
2022-08-28T21:22:44.298Z,18.53
2022-08-28T21:25:48.365Z,18.43
2022-08-28T21:28:52.395Z,18.40
2022-08-28T21:31:56.531Z,18.32
2022-08-28T21:34:59.484Z,18.26
2022-08-28T21:38:02.469Z,18.14
2022-08-28T21:41:06.347Z,18.10
2022-08-28T21:44:09.788Z,18.06
2022-08-28T21:47:16.461Z,17.99
2022-08-28T21:50:19.546Z,17.96
2022-08-28T21:53:23.002Z,17.90
2022-08-28T21:56:29.142Z,17.86
2022-08-28T21:59:37.749Z,17.85
2022-08-28T22:02:42.220Z,17.77
2022-08-28T22:05:46.668Z,17.69
2022-08-28T22:08:50.336Z,17.67
2022-08-28T22:11:53.442Z,17.54
2022-08-28T22:14:56.143Z,17.62
2022-08-28T22:18:00.367Z,17.57
2022-08-28T22:21:20.850Z,17.51
2022-08-28T22:24:23.957Z,17.41
2022-08-28T22:27:27.176Z,17.36
2022-08-28T22:30:29.883Z,17.33
2022-08-28T22:33:36.638Z,17.26
2022-08-28T22:36:39.859Z,17.20
2022-08-28T22:39:43.423Z,17.16
2022-08-28T22:42:46.415Z,17.11
2022-08-28T22:45:49.338Z,16.98
2022-08-28T22:48:53.840Z,17.00
2022-08-28T22:51:56.627Z,16.94
2022-08-28T22:54:59.553Z,16.94
2022-08-28T22:58:02.851Z,16.75
2022-08-28T23:01:11.167Z,16.84
2022-08-28T23:04:17.278Z,16.80
2022-08-28T23:07:20.088Z,16.63
2022-08-28T23:10:42.120Z,16.77
2022-08-28T23:13:46.384Z,16.73
2022-08-28T23:16:49.335Z,16.67
2022-08-28T23:19:55.463Z,16.59
2022-08-28T23:22:58.429Z,16.58
2022-08-28T23:26:01.785Z,16.38
2022-08-28T23:29:05.140Z,16.50
2022-08-28T23:32:08.454Z,16.48
2022-08-28T23:35:17.221Z,16.42
2022-08-28T23:38:20.784Z,16.41
2022-08-28T23:41:23.966Z,16.36
2022-08-28T23:44:26.726Z,16.33
2022-08-28T23:47:29.800Z,16.30
2022-08-28T23:50:34.061Z,16.14
2022-08-28T23:53:37.504Z,16.21
2022-08-28T23:56:40.413Z,16.06
2022-08-28T23:59:44.057Z,15.96
